Time;durP1;ratioP1;P1;durP2;ratioP2;P2;SDS_P1;SDS_P2;PMS_P1;PMS_P2;Temp;Humidity;BMP_temperature;BMP_pressure;BME280_temperature;BME280_humidity;BME280_pressure;Samples;Min_cycle;Max_cycle;Signal;HPM_P1;HPM_P2
2022/04/12 00:00:40;;;;;;;4.63;1.47;;;12.60;1.00;;;;;;5071984;28;20255;-73
2022/04/12 00:03:08;;;;;;;8.32;2.05;;;12.60;1.00;;;;;;5072126;28;20252;-76
2022/04/12 00:05:36;;;;;;;10.90;2.78;;;12.60;1.00;;;;;;5072503;28;20202;-72
2022/04/12 00:08:06;;;;;;;11.10;3.00;;;12.60;1.00;;;;;;5072504;28;20255;-77
2022/04/12 00:10:33;;;;;;;8.13;2.50;;;12.60;1.00;;;;;;5072521;28;20313;-76
2022/04/12 00:13:01;;;;;;;9.13;2.20;;;12.60;1.00;;;;;;5072195;28;20256;-80
2022/04/12 00:15:28;;;;;;;4.33;1.87;;;12.60;1.00;;;;;;5071594;28;20202;-78
2022/04/12 00:20:43;;;;;;;6.93;3.00;;;12.70;1.00;;;;;;5072244;28;20205;-74
2022/04/12 00:23:12;;;;;;;8.83;2.13;;;12.70;1.00;;;;;;5071575;28;20252;-78
2022/04/12 00:25:39;;;;;;;9.03;2.17;;;12.70;1.00;;;;;;5071723;28;20213;-77
2022/04/12 00:28:06;;;;;;;8.60;2.73;;;12.70;99.90;;;;;;5071391;28;20267;-71
2022/04/12 00:30:33;;;;;;;7.87;3.33;;;12.70;99.90;;;;;;5071932;28;20307;-75
2022/04/12 00:33:00;;;;;;;10.37;2.47;;;12.60;99.90;;;;;;5071919;28;20256;-71
2022/04/12 00:35:27;;;;;;;7.33;1.73;;;12.60;99.90;;;;;;5071262;28;20248;-73
2022/04/12 00:37:54;;;;;;;2.13;1.13;;;12.60;99.90;;;;;;5071243;28;20272;-70
2022/04/12 00:40:25;;;;;;;7.93;2.23;;;12.60;99.90;;;;;;5071416;28;20275;-74
2022/04/12 00:42:53;;;;;;;7.67;3.00;;;12.60;99.90;;;;;;5071479;28;20206;-73
2022/04/12 00:45:20;;;;;;;4.70;2.33;;;12.60;99.90;;;;;;5071021;28;20199;-74
2022/04/12 00:47:47;;;;;;;10.40;3.17;;;12.50;99.90;;;;;;5071525;28;20213;-73
2022/04/12 00:50:16;;;;;;;3.23;1.80;;;12.50;99.90;;;;;;5070825;28;20238;-73
2022/04/12 00:52:48;;;;;;;6.38;2.28;;;12.60;99.90;;;;;;5071496;28;20216;-72
2022/04/12 00:55:15;;;;;;;5.80;2.17;;;12.60;99.90;;;;;;5070719;28;20566;-74
2022/04/12 00:57:44;;;;;;;4.00;2.53;;;12.60;99.90;;;;;;5071066;28;20627;-69
2022/04/12 01:00:16;;;;;;;7.83;1.97;;;12.60;99.90;;;;;;5070565;28;20636;-74
2022/04/12 01:02:43;;;;;;;7.13;1.77;;;12.50;99.90;;;;;;5071132;28;20202;-73
2022/04/12 01:05:10;;;;;;;9.83;1.70;;;12.50;99.90;;;;;;5070563;28;20670;-75
2022/04/12 01:07:38;;;;;;;4.37;1.80;;;12.50;99.90;;;;;;5071036;28;20739;-78
2022/04/12 01:10:06;;;;;;;8.95;2.22;;;12.50;99.90;;;;;;5070833;28;20780;-73
2022/04/12 01:12:38;;;;;;;4.73;1.80;;;12.60;99.90;;;;;;5071347;28;20264;-72
2022/04/12 01:15:19;;;;;;;3.80;1.23;;;12.60;99.90;;;;;;5070944;28;20215;-72
2022/04/12 01:17:47;;;;;;;4.50;2.00;;;12.60;99.90;;;;;;5070992;28;20205;-70
2022/04/12 01:20:15;;;;;;;6.60;1.63;;;12.60;99.90;;;;;;5070476;28;20232;-72
2022/04/12 01:22:50;;;;;;;6.63;2.00;;;12.60;99.90;;;;;;5071088;28;20202;-71
2022/04/12 01:25:20;;;;;;;7.53;2.03;;;12.50;99.90;;;;;;5070245;28;20263;-69
2022/04/12 01:27:47;;;;;;;7.73;3.77;;;12.50;99.90;;;;;;5070701;28;20252;-74
2022/04/12 01:30:14;;;;;;;11.33;1.93;;;12.60;99.90;;;;;;5070352;28;20229;-69
2022/04/12 01:32:41;;;;;;;8.20;1.67;;;12.60;99.90;;;;;;5070735;28;20232;-70
2022/04/12 01:35:09;;;;;;;4.40;2.13;;;12.60;99.90;;;;;;5070362;28;20210;-68
2022/04/12 01:37:36;;;;;;;8.87;2.13;;;12.60;99.90;;;;;;5070763;28;20263;-71
2022/04/12 01:40:04;;;;;;;6.93;2.43;;;12.50;99.90;;;;;;5070991;28;20262;-69
2022/04/12 01:42:33;;;;;;;10.43;2.03;;;12.60;99.90;;;;;;5070361;28;20201;-70
2022/04/12 01:45:00;;;;;;;6.57;1.53;;;12.50;99.90;;;;;;5070909;28;20232;-68
2022/04/12 01:47:27;;;;;;;13.93;2.57;;;12.60;99.90;;;;;;5070331;28;20244;-74
2022/04/12 01:49:54;;;;;;;8.00;2.53;;;12.60;99.90;;;;;;5070387;28;20752;-69
2022/04/12 01:52:22;;;;;;;4.73;1.97;;;12.60;99.90;;;;;;5070202;28;20658;-73
2022/04/12 01:54:49;;;;;;;10.70;2.67;;;12.60;99.90;;;;;;5070639;28;20678;-68
2022/04/12 01:57:16;;;;;;;6.60;1.60;;;12.60;99.90;;;;;;5069736;28;20568;-71
2022/04/12 01:59:44;;;;;;;2.00;1.83;;;12.70;99.90;;;;;;5070635;28;20252;-70
2022/04/12 02:02:11;;;;;;;5.93;2.28;;;12.60;99.90;;;;;;5070056;28;20249;-70
2022/04/12 02:04:38;;;;;;;9.87;1.80;;;12.60;99.90;;;;;;5070604;28;20206;-73
2022/04/12 02:07:05;;;;;;;4.38;1.65;;;12.60;99.90;;;;;;5070550;28;20259;-71
2022/04/12 02:09:32;;;;;;;6.20;2.07;;;12.60;99.90;;;;;;5070581;28;20206;-75
2022/04/12 02:11:59;;;;;;;9.43;2.63;;;12.60;99.90;;;;;;5070185;28;20202;-76
2022/04/12 02:14:26;;;;;;;9.10;3.30;;;12.60;99.90;;;;;;5073180;28;20285;-74
2022/04/12 02:16:55;;;;;;;8.43;2.43;;;12.60;99.90;;;;;;5074402;28;20203;-76
2022/04/12 02:19:22;;;;;;;6.73;1.77;;;12.60;99.90;;;;;;5073812;28;20255;-69
2022/04/12 02:21:49;;;;;;;6.35;2.40;;;12.60;99.90;;;;;;5074170;28;20256;-71
2022/04/12 02:24:16;;;;;;;9.40;2.27;;;12.50;99.90;;;;;;5073516;28;20263;-70
2022/04/12 02:26:43;;;;;;;3.60;2.10;;;12.50;99.90;;;;;;5074121;28;20276;-69
2022/04/12 02:29:12;;;;;;;6.73;1.73;;;12.50;99.90;;;;;;5073595;28;20658;-73
2022/04/12 02:31:39;;;;;;;9.60;3.10;;;12.50;99.90;;;;;;5074076;28;20334;-72
2022/04/12 02:34:08;;;;;;;3.93;2.03;;;12.40;99.90;;;;;;5073540;28;20670;-69
2022/04/12 02:36:35;;;;;;;8.63;1.73;;;12.40;99.90;;;;;;5073805;28;20252;-72
2022/04/12 02:39:02;;;;;;;9.60;2.57;;;12.50;99.90;;;;;;5074092;28;20260;-73
2022/04/12 02:41:29;;;;;;;9.80;2.83;;;12.40;99.90;;;;;;5073216;28;20621;-76
2022/04/12 02:43:56;;;;;;;8.63;2.30;;;12.30;99.90;;;;;;5073954;28;20207;-70
2022/04/12 02:46:22;;;;;;;9.40;2.80;;;12.40;99.90;;;;;;5073507;28;20202;-71
2022/04/12 02:48:49;;;;;;;6.60;2.20;;;12.40;99.90;;;;;;5055615;28;20264;-72
2022/04/12 02:51:18;;;;;;;5.13;2.50;;;12.40;99.90;;;;;;5053143;28;20231;-74
2022/04/12 02:53:45;;;;;;;9.60;3.43;;;12.40;99.90;;;;;;5053582;28;20663;-72
2022/04/12 02:56:12;;;;;;;9.23;2.28;;;12.30;99.90;;;;;;5052877;28;20206;-72
2022/04/12 02:58:39;;;;;;;10.50;2.77;;;12.40;99.90;;;;;;5053467;28;20215;-73
2022/04/12 03:01:06;;;;;;;12.23;2.63;;;12.50;99.90;;;;;;5053044;28;20199;-71
2022/04/12 03:03:33;;;;;;;4.73;1.67;;;12.50;99.90;;;;;;5053774;28;20207;-71
2022/04/12 03:06:00;;;;;;;9.63;3.63;;;12.40;99.90;;;;;;5053562;28;20245;-71
2022/04/12 03:08:28;;;;;;;12.80;3.00;;;12.40;99.90;;;;;;5053148;28;20257;-69
2022/04/12 03:10:55;;;;;;;9.87;2.83;;;12.40;99.90;;;;;;5053218;28;20234;-70
2022/04/12 03:13:22;;;;;;;7.60;2.00;;;12.40;99.90;;;;;;5052913;28;20260;-72
2022/04/12 03:15:49;;;;;;;11.47;2.43;;;12.40;99.90;;;;;;5053357;28;20248;-78
2022/04/12 03:18:17;;;;;;;6.97;2.07;;;12.30;99.90;;;;;;5052691;28;20203;-71
2022/04/12 03:20:44;;;;;;;6.33;2.67;;;12.30;99.90;;;;;;5053065;28;20242;-72
2022/04/12 03:23:11;;;;;;;10.70;3.50;;;12.40;99.90;;;;;;5052461;28;20203;-72
2022/04/12 03:25:40;;;;;;;6.50;2.27;;;12.40;99.90;;;;;;5051818;28;20207;-71
2022/04/12 03:28:07;;;;;;;8.77;2.47;;;12.40;1.00;;;;;;5052579;28;20207;-74
2022/04/12 03:30:34;;;;;;;4.67;1.90;;;12.50;1.00;;;;;;5053055;28;20230;-70
2022/04/12 03:33:01;;;;;;;4.63;1.77;;;12.40;1.00;;;;;;5053139;28;20211;-73
2022/04/12 03:35:28;;;;;;;10.63;2.60;;;12.50;1.00;;;;;;5052655;28;20207;-71
2022/04/12 03:37:59;;;;;;;2.40;1.17;;;12.50;1.00;;;;;;5052853;28;20203;-72
2022/04/12 03:40:30;;;;;;;8.27;2.73;;;12.50;1.00;;;;;;5052616;28;20257;-71
2022/04/12 03:42:59;;;;;;;8.90;2.03;;;12.50;1.00;;;;;;5052786;28;20207;-74
2022/04/12 03:45:27;;;;;;;6.93;2.13;;;12.40;1.00;;;;;;5052144;28;20667;-78
2022/04/12 03:47:54;;;;;;;8.50;2.70;;;12.40;1.00;;;;;;5052665;28;20203;-74
2022/04/12 03:50:22;;;;;;;11.37;3.10;;;12.40;1.00;;;;;;5051814;28;20231;-76
2022/04/12 03:52:49;;;;;;;8.13;2.17;;;12.40;1.00;;;;;;5052325;28;20238;-73
2022/04/12 03:55:30;;;;;;;7.20;2.03;;;12.40;1.00;;;;;;5052174;28;20207;-76
2022/04/12 03:57:59;;;;;;;9.93;2.63;;;12.40;1.00;;;;;;5052320;28;20682;-75
2022/04/12 04:00:26;;;;;;;8.50;2.07;;;12.50;1.00;;;;;;5052271;28;20207;-74
2022/04/12 04:02:53;;;;;;;5.83;2.10;;;12.50;1.00;;;;;;5052327;28;20693;-75
2022/04/12 04:05:20;;;;;;;11.13;1.90;;;12.50;1.00;;;;;;5051917;28;20729;-74
2022/04/12 04:07:47;;;;;;;6.33;2.50;;;12.50;1.00;;;;;;5052079;28;20725;-74
2022/04/12 04:10:14;;;;;;;7.73;1.93;;;12.40;1.00;;;;;;5051802;28;20635;-75
2022/04/12 04:12:42;;;;;;;8.57;1.60;;;12.50;1.00;;;;;;5052063;28;20253;-75
2022/04/12 04:15:13;;;;;;;8.00;2.67;;;12.50;1.00;;;;;;5051915;28;20326;-70
2022/04/12 04:17:41;;;;;;;5.07;1.87;;;12.50;1.00;;;;;;5052127;28;20294;-71
2022/04/12 04:20:10;;;;;;;5.90;2.40;;;12.40;1.00;;;;;;5051741;28;20199;-70
2022/04/12 04:22:37;;;;;;;8.13;3.83;;;12.50;1.00;;;;;;5051821;28;20203;-73
2022/04/12 04:25:05;;;;;;;9.68;2.60;;;12.50;1.00;;;;;;5051555;28;20244;-72
2022/04/12 04:27:32;;;;;;;7.50;2.72;;;12.50;1.00;;;;;;5051853;28;20666;-72
2022/04/12 04:29:59;;;;;;;6.43;2.33;;;12.50;1.00;;;;;;5051736;28;20728;-73
2022/04/12 04:32:28;;;;;;;9.83;2.03;;;12.40;1.00;;;;;;5051079;28;20336;-74
2022/04/12 04:34:55;;;;;;;11.53;2.80;;;12.50;1.00;;;;;;5051436;28;20252;-72
2022/04/12 04:37:22;;;;;;;10.47;2.53;;;12.50;1.00;;;;;;5050114;28;20199;-73
2022/04/12 04:39:49;;;;;;;10.87;3.10;;;12.50;1.00;;;;;;5051174;28;20264;-71
2022/04/12 04:42:16;;;;;;;10.40;2.13;;;12.50;1.00;;;;;;5050875;28;20230;-73
2022/04/12 04:44:43;;;;;;;6.47;2.50;;;12.50;1.00;;;;;;5051538;28;20207;-70
2022/04/12 04:47:10;;;;;;;5.80;2.03;;;12.50;1.00;;;;;;5051083;28;20202;-68
2022/04/12 04:49:38;;;;;;;7.13;2.13;;;12.50;1.00;;;;;;5051375;28;20229;-73
2022/04/12 04:52:06;;;;;;;11.70;3.67;;;12.50;1.00;;;;;;5050825;28;20260;-71
2022/04/12 04:54:34;;;;;;;8.90;2.47;;;12.50;1.00;;;;;;5051727;28;20260;-70
2022/04/12 04:57:01;;;;;;;6.17;2.90;;;12.50;1.00;;;;;;5051240;28;20303;-69
2022/04/12 04:59:28;;;;;;;12.03;2.60;;;12.50;1.00;;;;;;5050668;28;20580;-72
2022/04/12 05:01:55;;;;;;;8.87;3.63;;;12.50;1.00;;;;;;5050727;28;20207;-72
2022/04/12 05:04:22;;;;;;;9.70;2.10;;;12.50;1.00;;;;;;5050796;28;20202;-73
2022/04/12 05:06:50;;;;;;;5.00;1.90;;;12.50;1.00;;;;;;5050695;28;20203;-75
2022/04/12 05:09:17;;;;;;;9.57;2.37;;;12.50;1.00;;;;;;5051034;28;20580;-76
2022/04/12 05:11:44;;;;;;;7.37;4.00;;;12.50;1.00;;;;;;5051095;28;20238;-74
2022/04/12 05:14:11;;;;;;;9.63;3.23;;;12.50;1.00;;;;;;5050781;28;20199;-75
2022/04/12 05:16:38;;;;;;;9.07;2.43;;;12.40;99.90;;;;;;5051036;28;20211;-74
2022/04/12 05:19:05;;;;;;;10.83;3.07;;;12.40;99.90;;;;;;5050799;28;20210;-78
2022/04/12 05:21:32;;;;;;;14.37;3.77;;;12.40;99.90;;;;;;5051178;28;20617;-72
2022/04/12 05:24:00;;;;;;;10.93;2.87;;;12.40;99.90;;;;;;5050842;28;20203;-73
2022/04/12 05:26:27;;;;;;;8.00;2.50;;;12.40;99.90;;;;;;5050501;28;20674;-73
2022/04/12 05:28:54;;;;;;;12.07;3.00;;;12.40;99.90;;;;;;5051005;28;20216;-73
2022/04/12 05:31:21;;;;;;;8.60;3.57;;;12.40;99.90;;;;;;5050409;28;20648;-75
2022/04/12 05:33:48;;;;;;;4.60;2.17;;;12.40;99.90;;;;;;5066228;28;20202;-71
2022/04/12 05:36:15;;;;;;;7.60;2.17;;;12.40;99.90;;;;;;5068841;28;20621;-75
2022/04/12 05:38:42;;;;;;;7.60;2.50;;;12.40;99.90;;;;;;5068972;28;20604;-74
2022/04/12 05:41:10;;;;;;;9.60;3.40;;;12.40;99.90;;;;;;5068359;28;20198;-77
2022/04/12 05:43:37;;;;;;;6.17;1.57;;;12.40;99.90;;;;;;5069716;28;20202;-73
2022/04/12 05:46:04;;;;;;;8.87;2.23;;;12.40;99.90;;;;;;5070941;28;20202;-77
2022/04/12 05:48:31;;;;;;;17.17;4.07;;;12.40;99.90;;;;;;5072223;28;20202;-74
2022/04/12 05:50:58;;;;;;;9.43;2.13;;;12.50;99.90;;;;;;5074736;28;20226;-74
2022/04/12 05:53:25;;;;;;;6.97;2.23;;;12.50;99.90;;;;;;5074638;28;20206;-76
2022/04/12 05:55:52;;;;;;;6.60;2.60;;;12.50;99.90;;;;;;5074904;28;20202;-73
2022/04/12 05:58:21;;;;;;;6.75;2.25;;;12.50;99.90;;;;;;5074304;28;20255;-71
2022/04/12 06:00:48;;;;;;;8.60;1.90;;;12.50;99.90;;;;;;5074483;28;20206;-78
2022/04/12 06:03:15;;;;;;;12.10;2.08;;;12.50;99.90;;;;;;5087255;28;20198;-75
2022/04/12 06:05:42;;;;;;;17.48;3.50;;;12.50;99.90;;;;;;5072690;28;20251;-75
2022/04/12 06:08:09;;;;;;;4.17;2.03;;;12.50;99.90;;;;;;5072328;28;20233;-75
2022/04/12 06:10:36;;;;;;;13.13;2.67;;;12.50;99.90;;;;;;5072621;28;20255;-75
2022/04/12 06:13:03;;;;;;;8.03;1.97;;;12.50;99.90;;;;;;5074654;28;20267;-73
2022/04/12 06:15:31;;;;;;;5.83;2.20;;;12.50;99.90;;;;;;5073990;28;20264;-75
2022/04/12 06:17:58;;;;;;;10.63;2.93;;;12.50;99.90;;;;;;5074185;28;20222;-73
2022/04/12 06:20:27;;;;;;;7.17;2.13;;;12.50;99.90;;;;;;5073838;28;20735;-78
2022/04/12 06:22:54;;;;;;;7.57;2.37;;;12.60;99.90;;;;;;5074245;28;20576;-75
2022/04/12 06:25:21;;;;;;;9.30;2.00;;;12.70;99.90;;;;;;5073882;28;20206;-77
2022/04/12 06:27:51;;;;;;;11.37;2.30;;;12.80;99.90;;;;;;5074033;28;20198;-70
2022/04/12 06:30:20;;;;;;;6.90;1.47;;;12.70;99.90;;;;;;5073629;28;20215;-70
2022/04/12 06:32:49;;;;;;;5.13;2.50;;;12.70;99.90;;;;;;5072514;28;20279;-70
2022/04/12 06:35:16;;;;;;;5.63;1.80;;;12.70;99.90;;;;;;5072528;28;20666;-69
2022/04/12 06:37:44;;;;;;;6.57;2.10;;;12.80;99.90;;;;;;5073935;28;20210;-71
2022/04/12 06:40:14;;;;;;;15.30;2.85;;;12.90;99.90;;;;;;5073401;28;20217;-74
2022/04/12 06:42:41;;;;;;;7.03;2.30;;;12.90;99.90;;;;;;5073818;28;20659;-72
2022/04/12 06:45:11;;;;;;;9.20;3.22;;;13.00;99.90;;;;;;5073566;28;20206;-70
2022/04/12 06:47:38;;;;;;;6.63;2.60;;;13.00;99.90;;;;;;5073722;28;20202;-69
2022/04/12 06:50:08;;;;;;;7.53;2.13;;;13.00;99.90;;;;;;5073787;28;20202;-71
2022/04/12 06:52:35;;;;;;;5.43;1.58;;;13.10;99.90;;;;;;5073749;28;20240;-73
2022/04/12 06:55:02;;;;;;;9.32;2.00;;;13.10;99.90;;;;;;5073860;28;20207;-72
2022/04/12 06:57:32;;;;;;;9.77;2.42;;;13.20;99.90;;;;;;5073451;28;20210;-77
2022/04/12 06:59:59;;;;;;;4.57;2.03;;;13.30;99.90;;;;;;5069154;28;20202;-72
2022/04/12 07:02:29;;;;;;;6.43;2.40;;;13.20;99.90;;;;;;5052998;28;20207;-73
2022/04/12 07:04:56;;;;;;;7.82;1.92;;;13.30;99.90;;;;;;5054102;28;20245;-74
2022/04/12 07:07:25;;;;;;;7.47;1.70;;;13.40;99.90;;;;;;5072174;28;20665;-74
2022/04/12 07:09:52;;;;;;;4.17;1.53;;;13.40;99.90;;;;;;5073111;28;20214;-78
2022/04/12 07:12:19;;;;;;;6.80;1.60;;;13.40;99.90;;;;;;5072206;28;20279;-72
2022/04/12 07:14:46;;;;;;;8.98;2.17;;;13.40;99.90;;;;;;5072233;28;20210;-74
2022/04/12 07:17:13;;;;;;;8.43;2.10;;;13.40;99.90;;;;;;5069706;28;20264;-72
2022/04/12 07:19:40;;;;;;;5.28;1.95;;;13.40;99.90;;;;;;5072114;28;20202;-74
2022/04/12 07:22:09;;;;;;;4.82;1.40;;;13.50;99.90;;;;;;5071356;28;20634;-72
2022/04/12 07:24:37;;;;;;;6.22;1.98;;;13.40;99.90;;;;;;5072175;28;20206;-74
2022/04/12 07:27:05;;;;;;;10.10;2.35;;;13.50;99.90;;;;;;5060748;28;20207;-73
2022/04/12 07:29:32;;;;;;;7.15;1.73;;;13.50;99.90;;;;;;5066901;28;20256;-73
2022/04/12 07:31:59;;;;;;;4.35;1.90;;;13.60;99.90;;;;;;5067758;28;20229;-71
2022/04/12 07:34:26;;;;;;;9.50;3.45;;;13.70;99.90;;;;;;5072355;28;20210;-74
2022/04/12 07:36:54;;;;;;;8.40;1.70;;;13.70;99.90;;;;;;5072164;28;20666;-73
2022/04/12 07:39:22;;;;;;;9.43;1.90;;;13.80;99.90;;;;;;5070903;28;20710;-71
2022/04/12 07:41:51;;;;;;;5.40;2.33;;;13.70;99.90;;;;;;5070506;28;20263;-73
2022/04/12 07:44:19;;;;;;;8.48;1.75;;;13.90;99.90;;;;;;5068257;28;20670;-73
2022/04/12 07:46:47;;;;;;;5.18;2.00;;;13.90;99.90;;;;;;5070962;28;20206;-74
2022/04/12 07:49:14;;;;;;;10.05;2.28;;;13.80;99.90;;;;;;5071310;28;20252;-72
2022/04/12 07:51:42;;;;;;;7.60;2.63;;;14.10;99.90;;;;;;5070603;28;20237;-75
2022/04/12 07:54:10;;;;;;;7.57;2.22;;;14.10;99.90;;;;;;5068996;28;20293;-76
2022/04/12 07:56:39;;;;;;;7.05;2.58;;;13.90;99.90;;;;;;5066248;28;20758;-76
2022/04/12 07:59:09;;;;;;;11.50;2.65;;;14.00;99.90;;;;;;5070260;28;20218;-74
2022/04/12 08:01:36;;;;;;;7.53;1.98;;;14.20;99.90;;;;;;5067507;28;20209;-74
2022/04/12 08:04:03;;;;;;;9.95;2.45;;;14.20;99.90;;;;;;5071746;28;20210;-74
2022/04/12 08:06:30;;;;;;;5.22;1.77;;;14.30;99.90;;;;;;5071668;28;20719;-74
2022/04/12 08:08:57;;;;;;;5.28;1.85;;;14.40;99.90;;;;;;5072319;28;20576;-77
2022/04/12 08:11:24;;;;;;;8.30;2.75;;;14.30;99.90;;;;;;5067477;28;20263;-73
2022/04/12 08:13:51;;;;;;;8.82;1.75;;;14.60;99.90;;;;;;5071181;28;20256;-74
2022/04/12 08:16:19;;;;;;;6.35;2.35;;;14.50;99.90;;;;;;5071059;28;20206;-74
2022/04/12 08:18:46;;;;;;;8.65;2.60;;;14.50;99.90;;;;;;5071924;28;20211;-73
2022/04/12 08:21:13;;;;;;;9.13;2.40;;;14.50;99.90;;;;;;5071230;28;20203;-71
2022/04/12 08:23:40;;;;;;;6.43;1.90;;;14.90;99.90;;;;;;5070823;28;20278;-75
2022/04/12 08:26:07;;;;;;;6.32;2.40;;;15.00;99.90;;;;;;5070894;28;20210;-75
2022/04/12 08:28:34;;;;;;;7.00;2.72;;;14.90;99.90;;;;;;5069404;28;20202;-73
2022/04/12 08:31:01;;;;;;;5.43;1.73;;;15.20;99.90;;;;;;5063849;28;20681;-74
2022/04/12 08:33:30;;;;;;;10.25;2.78;;;15.00;99.90;;;;;;5067473;28;20593;-74
2022/04/12 08:35:57;;;;;;;8.68;2.38;;;15.10;99.90;;;;;;5071370;28;20625;-75
2022/04/12 08:38:24;;;;;;;11.38;2.58;;;15.10;99.90;;;;;;5070770;28;20210;-75
2022/04/12 08:40:54;;;;;;;8.82;1.85;;;15.10;99.90;;;;;;5071537;28;20271;-74
2022/04/12 08:43:23;;;;;;;8.95;2.15;;;15.00;99.90;;;;;;5060980;28;20249;-73
2022/04/12 08:45:50;;;;;;;7.85;1.88;;;15.20;99.90;;;;;;5051698;28;20203;-74
2022/04/12 08:48:17;;;;;;;6.50;1.80;;;15.30;99.90;;;;;;5051156;28;20271;-74
2022/04/12 08:50:46;;;;;;;11.18;2.33;;;15.50;99.90;;;;;;5070686;28;20202;-74
2022/04/12 08:53:15;;;;;;;15.15;3.75;;;15.60;99.90;;;;;;5070982;28;20241;-74
2022/04/12 08:55:42;;;;;;;8.65;1.88;;;15.80;99.90;;;;;;5071293;28;20256;-74
2022/04/12 08:58:10;;;;;;;7.13;1.90;;;15.90;99.90;;;;;;5067788;28;20214;-74
2022/04/12 09:00:37;;;;;;;6.80;1.77;;;16.10;99.90;;;;;;5058821;28;20229;-73
2022/04/12 09:03:04;;;;;;;10.52;2.55;;;15.60;99.90;;;;;;5067412;28;20298;-71
2022/04/12 09:05:32;;;;;;;9.82;2.00;;;15.30;99.90;;;;;;5068657;28;20206;-75
2022/04/12 09:08:01;;;;;;;4.18;2.15;;;15.30;99.90;;;;;;5070114;28;20202;-77
2022/04/12 09:10:35;;;;;;;5.90;2.00;;;15.20;99.90;;;;;;5068939;28;20210;-74
2022/04/12 09:13:11;;;;;;;6.93;1.95;;;15.30;99.90;;;;;;5069701;28;20728;-77
2022/04/12 09:15:45;;;;;;;8.02;2.80;;;15.60;99.90;;;;;;5069009;28;20209;-77
2022/04/12 09:18:12;;;;;;;6.22;2.15;;;15.60;99.90;;;;;;5070227;28;20293;-77
2022/04/12 09:20:42;;;;;;;7.05;2.10;;;15.50;99.90;;;;;;5070571;28;20210;-79
2022/04/12 09:23:17;;;;;;;7.05;1.98;;;15.80;99.90;;;;;;5070393;28;20209;-76
2022/04/12 09:25:54;;;;;;;10.63;2.20;;;16.00;99.90;;;;;;5070144;28;20206;-73
2022/04/12 09:28:21;;;;;;;17.65;4.20;;;16.10;99.90;;;;;;5070135;28;20297;-74
2022/04/12 09:30:53;;;;;;;9.02;3.67;;;15.90;99.90;;;;;;5070568;28;20211;-74
2022/04/12 09:33:35;;;;;;;7.38;1.83;;;15.70;99.90;;;;;;5070451;28;20237;-75
2022/04/12 09:36:02;;;;;;;4.55;2.00;;;16.00;99.90;;;;;;5070638;28;20259;-76
2022/04/12 09:38:34;;;;;;;9.93;2.90;;;15.80;99.90;;;;;;5062989;28;20215;-77
2022/04/12 09:41:20;;;;;;;5.35;1.80;;;16.20;99.90;;;;;;5050906;28;20211;-77
2022/04/12 09:43:59;;;;;;;8.10;4.15;;;16.60;99.90;;;;;;5050272;28;20230;-77
2022/04/12 09:46:27;;;;;;;9.50;2.28;;;16.00;99.90;;;;;;5054652;28;20206;-73
2022/04/12 09:48:54;;;;;;;8.40;3.55;;;16.40;99.90;;;;;;5060697;28;20332;-76
2022/04/12 09:51:23;;;;;;;5.85;2.42;;;16.30;99.90;;;;;;5068218;28;20202;-76
2022/04/12 09:53:52;;;;;;;7.72;2.58;;;16.40;99.90;;;;;;5068485;28;20234;-72
2022/04/12 09:56:22;;;;;;;5.55;2.30;;;16.90;99.90;;;;;;5057404;28;20205;-73
2022/04/12 09:58:50;;;;;;;12.07;2.50;;;17.40;99.90;;;;;;5065068;28;20275;-77
2022/04/12 10:01:18;;;;;;;7.82;2.75;;;16.50;99.90;;;;;;5067119;28;20211;-74
2022/04/12 10:03:47;;;;;;;8.85;2.38;;;17.10;99.90;;;;;;5066172;28;20202;-73
2022/04/12 10:06:21;;;;;;;8.57;2.70;;;17.70;99.90;;;;;;5065972;28;20297;-75
2022/04/12 10:08:54;;;;;;;9.82;2.20;;;18.30;99.90;;;;;;5067629;28;20753;-75
2022/04/12 10:11:21;;;;;;;6.50;1.95;;;17.40;99.90;;;;;;5068660;28;20619;-74
2022/04/12 10:13:49;;;;;;;11.10;5.40;;;17.80;99.90;;;;;;5070483;28;20363;-76
2022/04/12 10:16:18;;;;;;;6.07;2.33;;;17.60;99.90;;;;;;5069591;28;20259;-71
2022/04/12 10:18:45;;;;;;;7.05;2.17;;;17.20;99.90;;;;;;5070125;28;20259;-72
2022/04/12 10:21:14;;;;;;;5.85;2.13;;;17.10;99.90;;;;;;5069121;28;20238;-75
2022/04/12 10:23:44;;;;;;;8.60;1.70;;;17.50;99.90;;;;;;5056838;28;20253;-76
2022/04/12 10:26:20;;;;;;;10.20;2.80;;;17.50;99.90;;;;;;5061862;28;20203;-74
2022/04/12 10:28:52;;;;;;;10.40;3.85;;;18.50;99.90;;;;;;5068435;28;20213;-77
2022/04/12 10:31:21;;;;;;;4.85;2.38;;;17.70;99.90;;;;;;5068287;28;20279;-74
2022/04/12 10:33:53;;;;;;;7.88;2.08;;;17.20;99.90;;;;;;5069412;28;20250;-76
2022/04/12 10:36:20;;;;;;;5.40;2.42;;;17.40;99.90;;;;;;5072318;28;20264;-80
2022/04/12 10:38:47;;;;;;;9.32;2.80;;;16.80;99.90;;;;;;5073672;28;20210;-74
2022/04/12 10:41:27;;;;;;;8.68;2.38;;;17.20;99.90;;;;;;5073531;28;20244;-75
2022/04/12 10:43:57;;;;;;;13.90;2.70;;;16.60;99.90;;;;;;5056900;28;20218;-79
2022/04/12 10:46:24;;;;;;;6.15;2.55;;;16.60;99.90;;;;;;5053588;28;20301;-75
2022/04/12 10:48:55;;;;;;;8.43;2.45;;;16.60;99.90;;;;;;5054253;28;20211;-76
2022/04/12 10:51:38;;;;;;;6.90;1.73;;;16.70;99.90;;;;;;5063990;28;20297;-77
2022/04/12 10:54:05;;;;;;;8.05;2.28;;;17.10;99.90;;;;;;5073433;28;20324;-73
2022/04/12 10:56:34;;;;;;;18.08;4.25;;;17.30;99.90;;;;;;5074062;28;20259;-79
2022/04/12 10:59:01;;;;;;;8.93;2.13;;;17.40;99.90;;;;;;5073655;28;20214;-78
2022/04/12 11:01:30;;;;;;;7.07;2.10;;;17.00;99.90;;;;;;5073228;28;20670;-82
2022/04/12 11:03:58;;;;;;;4.72;1.75;;;16.70;99.90;;;;;;5073616;28;20202;-78
2022/04/12 11:06:26;;;;;;;6.97;2.22;;;16.80;99.90;;;;;;5073227;28;20210;-76
2022/04/12 11:08:54;;;;;;;9.90;2.88;;;16.80;99.90;;;;;;5072165;28;20248;-78
2022/04/12 11:11:27;;;;;;;10.75;3.05;;;16.90;99.90;;;;;;5071720;28;20210;-78
2022/04/12 11:13:56;;;;;;;9.02;1.90;;;17.30;99.90;;;;;;5068456;28;20244;-82
2022/04/12 11:16:27;;;;;;;8.25;2.75;;;17.10;99.90;;;;;;5070961;28;20202;-78
2022/04/12 11:18:55;;;;;;;5.32;1.55;;;16.80;99.90;;;;;;5067666;28;20833;-87
2022/04/12 11:21:24;;;;;;;4.30;2.08;;;16.80;99.90;;;;;;5063050;28;20218;-79
2022/04/12 11:23:57;;;;;;;8.15;3.30;;;16.90;99.90;;;;;;5053607;28;20203;-82
2022/04/12 11:26:35;;;;;;;5.07;1.50;;;17.10;99.90;;;;;;5052768;28;20260;-81
2022/04/12 11:29:06;;;;;;;8.70;2.20;;;16.90;99.90;;;;;;5053613;28;20207;-84
2022/04/12 11:31:36;;;;;;;9.60;2.60;;;17.00;99.90;;;;;;5053612;28;20289;-77
2022/04/12 11:34:03;;;;;;;7.57;3.22;;;17.30;99.90;;;;;;5053535;28;20655;-70
2022/04/12 11:36:30;;;;;;;6.68;3.05;;;17.60;99.90;;;;;;5052647;28;20632;-70
2022/04/12 11:38:57;;;;;;;9.90;2.58;;;18.20;99.90;;;;;;5052922;28;20215;-72
2022/04/12 11:41:25;;;;;;;12.80;2.90;;;17.20;99.90;;;;;;5052475;28;20302;-70
2022/04/12 11:43:59;;;;;;;10.93;2.60;;;17.60;99.90;;;;;;5052766;28;20252;-70
2022/04/12 11:46:30;;;;;;;6.07;2.30;;;17.40;99.90;;;;;;5051193;28;20205;-73
2022/04/12 11:49:04;;;;;;;8.52;3.38;;;17.40;99.90;;;;;;5052586;28;20206;-70
2022/04/12 11:51:32;;;;;;;11.70;2.95;;;17.20;99.90;;;;;;5066179;28;20257;-71
2022/04/12 11:53:59;;;;;;;10.55;2.35;;;17.50;99.90;;;;;;5072529;28;20233;-73
2022/04/12 11:56:28;;;;;;;12.77;2.67;;;17.50;99.90;;;;;;5069606;28;20210;-73
2022/04/12 11:58:55;;;;;;;11.70;3.45;;;17.60;99.90;;;;;;5071235;28;20218;-69
2022/04/12 12:01:33;;;;;;;6.20;2.65;;;17.60;99.90;;;;;;5072131;28;20209;-76
2022/04/12 12:04:06;;;;;;;8.05;3.10;;;17.40;99.90;;;;;;5072910;28;20242;-76
2022/04/12 12:06:33;;;;;;;8.18;1.90;;;17.30;99.90;;;;;;5072543;28;20202;-82
2022/04/12 12:09:02;;;;;;;6.75;2.15;;;17.10;99.90;;;;;;5072279;28;20281;-78
2022/04/12 12:11:29;;;;;;;9.05;2.97;;;17.30;99.90;;;;;;5069058;28;20210;-81
2022/04/12 12:13:57;;;;;;;9.95;2.65;;;17.40;99.90;;;;;;5061226;28;20241;-75
2022/04/12 12:16:24;;;;;;;6.85;2.70;;;17.20;99.90;;;;;;5072008;28;20722;-77
2022/04/12 12:18:52;;;;;;;11.45;2.20;;;17.00;99.90;;;;;;5072488;28;20260;-76
2022/04/12 12:21:20;;;;;;;6.80;1.98;;;17.20;99.90;;;;;;5070047;28;20228;-82
2022/04/12 12:23:47;;;;;;;7.82;2.80;;;16.80;99.90;;;;;;5068246;28;20207;-75
2022/04/12 12:26:27;;;;;;;5.65;2.25;;;16.50;99.90;;;;;;5059901;28;20234;-77
2022/04/12 12:28:58;;;;;;;6.75;1.85;;;16.50;99.90;;;;;;5071118;28;20669;-75
2022/04/12 12:31:26;;;;;;;7.68;2.13;;;16.50;99.90;;;;;;5067023;28;20210;-79
2022/04/12 12:33:54;;;;;;;4.97;1.85;;;16.30;99.90;;;;;;5071280;28;20230;-73
2022/04/12 12:36:23;;;;;;;6.68;2.17;;;16.20;99.90;;;;;;5070034;28;20724;-74
2022/04/12 12:38:51;;;;;;;10.02;2.63;;;16.40;99.90;;;;;;5071460;28;20271;-73
2022/04/12 12:41:26;;;;;;;12.40;2.80;;;16.60;99.90;;;;;;5070685;28;20210;-76
2022/04/12 12:43:56;;;;;;;5.28;1.98;;;16.90;99.90;;;;;;5071409;28;20208;-76
2022/04/12 12:46:26;;;;;;;10.27;2.83;;;17.00;99.90;;;;;;5070787;28;20214;-74
2022/04/12 12:49:11;;;;;;;10.57;2.35;;;17.40;99.90;;;;;;5070926;28;20554;-74
2022/04/12 12:51:40;;;;;;;10.40;2.70;;;17.00;99.90;;;;;;5070843;28;20245;-76
2022/04/12 12:54:09;;;;;;;10.18;2.70;;;17.00;99.90;;;;;;5070711;28;20233;-75